createdAt,value
2022-10-11T00:00:57.641Z,86.57
2022-10-11T00:03:34.699Z,86.34
2022-10-11T00:06:03.829Z,86.32
2022-10-11T00:08:32.884Z,86.44
2022-10-11T00:11:05.345Z,86.54
2022-10-11T00:13:33.619Z,87.03
2022-10-11T00:16:07.460Z,86.42
2022-10-11T00:18:36.532Z,86.50
2022-10-11T00:21:08.738Z,86.85
2022-10-11T00:23:36.448Z,86.79
2022-10-11T00:26:07.956Z,86.97
2022-10-11T00:28:36.583Z,87.26
2022-10-11T00:31:11.348Z,87.22
2022-10-11T00:33:39.933Z,87.37
2022-10-11T00:36:09.384Z,87.43
2022-10-11T00:38:37.303Z,87.26
2022-10-11T00:41:05.790Z,87.37
2022-10-11T00:43:33.574Z,87.28
2022-10-11T00:46:19.127Z,87.35
2022-10-11T00:48:53.753Z,87.02
2022-10-11T00:51:46.863Z,86.71
2022-10-11T00:54:18.733Z,86.54
2022-10-11T00:56:52.009Z,86.29
2022-10-11T00:59:27.619Z,86.47
2022-10-11T01:01:55.655Z,86.56
2022-10-11T01:04:23.614Z,86.38
2022-10-11T01:06:53.180Z,86.60
2022-10-11T01:09:22.162Z,86.51
2022-10-11T01:11:52.335Z,86.43
2022-10-11T01:14:59.589Z,86.29
2022-10-11T01:17:56.533Z,86.33
2022-10-11T01:20:36.538Z,86.21
2022-10-11T01:23:38.890Z,85.98
2022-10-11T01:26:34.256Z,85.77
2022-10-11T01:29:44.855Z,85.71
2022-10-11T01:32:46.533Z,85.43
2022-10-11T01:35:45.672Z,85.35
2022-10-11T01:38:22.002Z,85.43
2022-10-11T01:40:59.667Z,85.23
2022-10-11T01:43:28.847Z,85.05
2022-10-11T01:45:58.873Z,85.05
2022-10-11T01:48:26.521Z,85.38
2022-10-11T01:50:58.634Z,84.94
2022-10-11T01:53:54.067Z,84.97
2022-10-11T01:57:04.463Z,84.92
2022-10-11T01:59:47.206Z,84.81
2022-10-11T02:02:43.694Z,84.83
2022-10-11T02:05:33.375Z,84.72
2022-10-11T02:08:16.497Z,84.69
2022-10-11T02:10:54.174Z,84.59
2022-10-11T02:13:37.954Z,85.00
2022-10-11T02:16:12.989Z,84.79
2022-10-11T02:18:51.110Z,84.98
2022-10-11T02:21:23.411Z,84.80
2022-10-11T02:24:07.232Z,84.88
2022-10-11T02:26:36.564Z,84.85
2022-10-11T02:29:07.710Z,84.98
2022-10-11T02:31:36.419Z,84.97
2022-10-11T02:34:41.252Z,85.32
2022-10-11T02:37:25.506Z,85.35
2022-10-11T02:40:15.526Z,85.28
2022-10-11T02:42:58.450Z,85.54
2022-10-11T02:45:35.086Z,85.47
2022-10-11T02:48:04.601Z,85.36
2022-10-11T02:50:32.740Z,85.55
2022-10-11T02:53:00.418Z,85.70
2022-10-11T02:55:28.158Z,85.50
2022-10-11T02:57:56.299Z,85.55
2022-10-11T03:00:24.182Z,85.53
2022-10-11T03:02:51.887Z,85.71
2022-10-11T03:05:19.914Z,86.14
2022-10-11T03:07:47.579Z,86.20
2022-10-11T03:10:15.435Z,86.17
2022-10-11T03:12:43.068Z,86.59
2022-10-11T03:15:11.313Z,86.55
2022-10-11T03:17:39.326Z,86.71
2022-10-11T03:20:07.930Z,86.73
2022-10-11T03:22:36.497Z,86.68
2022-10-11T03:25:05.008Z,86.75
2022-10-11T03:27:33.929Z,87.33
2022-10-11T03:30:02.534Z,87.48
2022-10-11T03:32:30.601Z,87.43
2022-10-11T03:34:58.238Z,87.53
2022-10-11T03:37:26.271Z,87.36
2022-10-11T03:39:54.065Z,87.46
2022-10-11T03:42:21.733Z,87.44
2022-10-11T03:44:51.790Z,87.23
2022-10-11T03:47:19.954Z,87.61
2022-10-11T03:49:47.643Z,87.59
2022-10-11T03:52:15.435Z,87.59
2022-10-11T03:54:43.122Z,87.25
2022-10-11T03:57:10.861Z,87.13
2022-10-11T03:59:38.558Z,87.26
2022-10-11T04:02:06.977Z,87.69
2022-10-11T04:04:34.941Z,87.58
2022-10-11T04:07:02.862Z,87.47
2022-10-11T04:09:30.763Z,87.41
2022-10-11T04:11:58.490Z,87.44
2022-10-11T04:14:27.132Z,86.90
2022-10-11T04:16:57.356Z,86.44
2022-10-11T04:19:28.037Z,86.16
2022-10-11T04:21:55.745Z,86.09
2022-10-11T04:24:23.445Z,86.11
2022-10-11T04:26:51.125Z,85.95
2022-10-11T04:29:18.774Z,85.86
2022-10-11T04:31:46.869Z,85.99
2022-10-11T04:34:14.676Z,86.02
2022-10-11T04:36:44.390Z,85.76
2022-10-11T04:39:15.433Z,85.93
2022-10-11T04:41:43.158Z,85.97
2022-10-11T04:44:10.792Z,85.80
2022-10-11T04:46:38.488Z,86.15
2022-10-11T04:49:06.147Z,86.10
2022-10-11T04:51:33.792Z,85.79
2022-10-11T04:54:01.554Z,85.51
2022-10-11T04:56:30.546Z,85.55
2022-10-11T04:58:58.282Z,85.42
2022-10-11T05:01:26.102Z,85.17
2022-10-11T05:03:53.767Z,85.33
2022-10-11T05:06:21.484Z,85.20
2022-10-11T05:08:49.244Z,85.01
2022-10-11T05:11:17.592Z,85.07
2022-10-11T05:13:47.069Z,85.18
2022-10-11T05:16:15.849Z,85.21
2022-10-11T05:18:44.410Z,85.00
2022-10-11T05:21:22.517Z,84.97
2022-10-11T05:23:52.857Z,84.96
2022-10-11T05:26:20.861Z,84.93
2022-10-11T05:28:49.030Z,85.22
2022-10-11T05:31:16.863Z,85.51
2022-10-11T05:33:45.225Z,85.86
2022-10-11T05:36:14.116Z,86.14
2022-10-11T05:38:41.875Z,86.22
2022-10-11T05:41:13.431Z,86.13
2022-10-11T05:43:41.231Z,86.35
2022-10-11T05:46:09.103Z,86.81
2022-10-11T05:48:37.011Z,86.92
2022-10-11T05:51:09.898Z,86.62
2022-10-11T05:53:38.856Z,87.29
2022-10-11T05:56:22.130Z,87.23
2022-10-11T05:58:51.154Z,87.16
2022-10-11T06:01:25.350Z,87.19
2022-10-11T06:03:53.633Z,87.09
2022-10-11T06:06:21.720Z,87.21
2022-10-11T06:08:50.007Z,87.03
2022-10-11T06:11:23.475Z,87.00
2022-10-11T06:13:55.034Z,86.66
2022-10-11T06:16:22.791Z,86.61
2022-10-11T06:18:57.880Z,86.37
2022-10-11T06:21:26.132Z,86.02
2022-10-11T06:23:59.916Z,85.71
2022-10-11T06:26:30.028Z,85.21
2022-10-11T06:28:58.988Z,84.89
2022-10-11T06:31:27.042Z,84.59
2022-10-11T06:33:55.103Z,84.66
2022-10-11T06:36:22.909Z,84.66
2022-10-11T06:38:54.979Z,84.58
2022-10-11T06:41:26.468Z,84.81
2022-10-11T06:43:54.850Z,84.56
2022-10-11T06:46:25.513Z,84.28
2022-10-11T06:48:56.296Z,83.82
2022-10-11T06:51:25.754Z,83.25
2022-10-11T06:53:57.800Z,82.72
2022-10-11T06:56:27.804Z,82.03
2022-10-11T06:58:58.173Z,82.01
2022-10-11T07:01:27.562Z,81.19
2022-10-11T07:03:58.219Z,80.83
2022-10-11T07:06:28.500Z,81.02
2022-10-11T07:08:57.453Z,80.83
2022-10-11T07:11:27.759Z,80.61
2022-10-11T07:14:04.356Z,80.18
2022-10-11T07:16:32.032Z,79.70
2022-10-11T07:19:02.726Z,79.14
2022-10-11T07:21:33.325Z,78.13
2022-10-11T07:24:02.263Z,78.18
2022-10-11T07:26:36.860Z,77.43
2022-10-11T07:29:11.582Z,77.06
2022-10-11T07:31:42.071Z,77.80
2022-10-11T07:34:10.730Z,78.30
2022-10-11T07:36:38.760Z,78.80
2022-10-11T07:39:08.738Z,78.83
2022-10-11T07:41:43.078Z,78.09
2022-10-11T07:44:14.510Z,78.24
2022-10-11T07:46:42.519Z,78.43
2022-10-11T07:49:10.182Z,78.43
2022-10-11T07:51:37.814Z,77.63
2022-10-11T07:54:07.419Z,77.36
2022-10-11T07:56:37.429Z,77.31
2022-10-11T07:59:05.820Z,77.10
2022-10-11T08:01:33.812Z,77.00
2022-10-11T08:04:01.726Z,77.11
2022-10-11T08:06:32.651Z,77.23
2022-10-11T08:09:02.126Z,78.16
2022-10-11T08:11:36.633Z,77.41
2022-10-11T08:14:08.874Z,77.22
2022-10-11T08:16:39.038Z,76.43
2022-10-11T08:19:07.304Z,76.53
2022-10-11T08:21:35.048Z,76.21
2022-10-11T08:24:05.356Z,76.11
2022-10-11T08:26:34.464Z,76.46
2022-10-11T08:29:03.373Z,75.92
2022-10-11T08:31:32.851Z,75.73
2022-10-11T08:34:00.898Z,75.54
2022-10-11T08:36:28.778Z,75.70
2022-10-11T08:38:56.618Z,75.87
2022-10-11T08:42:04.640Z,75.55
2022-10-11T08:47:36.417Z,76.24
2022-10-11T08:50:07.891Z,77.04
2022-10-11T08:52:52.423Z,76.66
2022-10-11T08:55:39.949Z,76.15
2022-10-11T08:58:13.774Z,75.51
2022-10-11T09:00:42.632Z,75.84
2022-10-11T09:03:40.327Z,74.97
2022-10-11T09:06:23.628Z,74.89
2022-10-11T09:09:32.990Z,75.38
2022-10-11T09:12:34.281Z,74.76
2022-10-11T09:15:49.560Z,74.34
2022-10-11T09:18:30.129Z,74.19
2022-10-11T09:21:31.030Z,74.68
2022-10-11T09:24:25.937Z,73.45
2022-10-11T09:27:05.184Z,72.50
2022-10-11T09:30:01.733Z,71.96
2022-10-11T09:32:37.260Z,71.74
2022-10-11T09:35:17.223Z,71.06
2022-10-11T09:38:11.308Z,71.63
2022-10-11T09:41:01.971Z,71.49
2022-10-11T09:43:30.382Z,70.29
2022-10-11T09:45:58.079Z,69.55
2022-10-11T09:48:40.191Z,68.19
2022-10-11T09:51:20.564Z,67.46
2022-10-11T09:54:10.911Z,67.26
2022-10-11T09:56:45.046Z,66.46
2022-10-11T09:59:32.574Z,66.49
2022-10-11T10:02:17.763Z,66.39
2022-10-11T10:05:06.474Z,65.83
2022-10-11T10:07:39.314Z,65.05
2022-10-11T10:10:40.367Z,65.43
2022-10-11T10:13:24.380Z,63.32
2022-10-11T10:15:56.435Z,63.39
2022-10-11T10:19:04.293Z,63.63
2022-10-11T10:21:38.482Z,62.15
2022-10-11T10:24:18.385Z,61.93
2022-10-11T10:27:23.461Z,60.92
2022-10-11T10:30:09.725Z,59.51
2022-10-11T10:33:11.607Z,59.63
2022-10-11T10:35:46.907Z,59.29
2022-10-11T10:38:29.285Z,58.58
2022-10-11T10:41:11.731Z,58.31
2022-10-11T10:43:42.946Z,58.43
2022-10-11T10:46:50.713Z,57.85
2022-10-11T10:49:55.332Z,57.73
2022-10-11T10:53:08.904Z,57.31
2022-10-11T10:55:53.841Z,57.49
2022-10-11T10:58:39.541Z,55.84
2022-10-11T11:01:33.878Z,55.53
2022-10-11T11:04:22.197Z,55.93
2022-10-11T11:07:28.277Z,56.69
2022-10-11T11:10:16.619Z,56.82
2022-10-11T11:12:59.074Z,55.96
2022-10-11T11:16:11.478Z,54.32
2022-10-11T11:18:57.823Z,53.39
2022-10-11T11:21:50.165Z,53.48
2022-10-11T11:24:46.953Z,52.85
2022-10-11T11:27:49.945Z,52.57
2022-10-11T11:30:36.528Z,53.17
2022-10-11T11:33:30.918Z,52.89
2022-10-11T11:36:47.694Z,52.07
2022-10-11T11:39:32.683Z,50.64
2022-10-11T11:42:20.837Z,51.42
2022-10-11T11:44:51.442Z,50.95
2022-10-11T11:47:41.091Z,50.18
2022-10-11T11:50:23.013Z,50.90
2022-10-11T11:53:07.582Z,52.03
2022-10-11T11:56:01.585Z,50.87
2022-10-11T11:58:49.809Z,49.81
2022-10-11T12:01:46.756Z,49.83
2022-10-11T12:04:34.808Z,49.04
2022-10-11T12:07:16.311Z,48.58
2022-10-11T12:09:54.489Z,48.96
2022-10-11T12:12:37.897Z,48.30
2022-10-11T12:15:08.965Z,48.15
2022-10-11T12:18:04.169Z,47.42
2022-10-11T12:20:40.876Z,47.11
2022-10-11T12:23:30.525Z,46.70
2022-10-11T12:26:29.055Z,46.21
2022-10-11T12:29:03.825Z,46.65
2022-10-11T12:31:35.630Z,47.30
2022-10-11T12:34:26.591Z,48.85
2022-10-11T12:36:54.361Z,49.23
2022-10-11T12:39:22.658Z,48.55
2022-10-11T12:42:07.711Z,48.95
2022-10-11T12:44:35.457Z,48.61
2022-10-11T12:47:24.894Z,48.58
2022-10-11T12:50:11.909Z,48.67
2022-10-11T12:53:03.508Z,48.43
2022-10-11T12:56:15.147Z,47.88
2022-10-11T12:58:48.176Z,46.24
2022-10-11T13:01:23.464Z,44.61
2022-10-11T13:04:03.086Z,44.27
2022-10-11T13:06:44.750Z,44.66
2022-10-11T13:09:34.974Z,44.39
2022-10-11T13:12:19.351Z,44.37
2022-10-11T13:15:00.928Z,44.09
2022-10-11T13:17:38.600Z,44.91
2022-10-11T13:20:17.366Z,46.71
2022-10-11T13:22:55.598Z,47.78
2022-10-11T13:25:27.957Z,46.63
2022-10-11T13:27:59.465Z,45.30
2022-10-11T13:30:35.832Z,44.46
2022-10-11T13:33:10.984Z,43.83
2022-10-11T13:35:39.049Z,43.14
2022-10-11T13:38:29.054Z,42.58
2022-10-11T13:40:59.498Z,42.90
2022-10-11T13:43:29.960Z,43.39
2022-10-11T13:46:01.367Z,43.09
2022-10-11T13:48:31.907Z,43.84
2022-10-11T13:51:26.645Z,44.91
2022-10-11T13:54:05.924Z,45.23
2022-10-11T13:56:51.114Z,45.49
2022-10-11T13:59:23.676Z,45.05
2022-10-11T14:02:01.082Z,44.68
2022-10-11T14:04:39.909Z,44.21
2022-10-11T14:07:27.479Z,44.14
2022-10-11T14:09:55.989Z,43.61
2022-10-11T14:12:44.287Z,44.34
2022-10-11T14:15:37.131Z,46.10
2022-10-11T14:18:37.859Z,46.93
2022-10-11T14:21:45.115Z,47.58
2022-10-11T14:24:17.840Z,46.84
2022-10-11T14:26:49.441Z,47.08
2022-10-11T14:29:32.336Z,47.31
2022-10-11T14:32:15.464Z,48.20
2022-10-11T14:34:46.574Z,48.92
2022-10-11T14:37:17.593Z,49.16
2022-10-11T14:39:47.725Z,49.39
2022-10-11T14:42:15.632Z,49.83
2022-10-11T14:44:43.663Z,49.19
2022-10-11T14:47:18.174Z,49.56
2022-10-11T14:49:45.924Z,49.88
2022-10-11T14:52:14.017Z,49.81
2022-10-11T14:54:42.062Z,49.30
2022-10-11T14:57:12.035Z,49.28
2022-10-11T14:59:39.854Z,49.18
2022-10-11T15:02:11.146Z,49.10
2022-10-11T15:04:39.030Z,49.31
2022-10-11T15:07:06.966Z,49.53
2022-10-11T15:09:34.682Z,49.49
2022-10-11T15:12:02.371Z,49.65
2022-10-11T15:14:30.102Z,50.22
2022-10-11T15:16:58.023Z,50.48
2022-10-11T15:19:25.822Z,50.13
2022-10-11T15:21:53.611Z,50.20
2022-10-11T15:24:21.462Z,50.27
2022-10-11T15:26:49.326Z,50.83
2022-10-11T15:29:17.915Z,50.95
2022-10-11T15:31:46.176Z,51.33
2022-10-11T15:34:14.306Z,51.72
2022-10-11T15:36:42.543Z,52.20
2022-10-11T15:39:32.532Z,52.49
2022-10-11T15:42:00.358Z,52.86
2022-10-11T15:44:28.132Z,53.19
2022-10-11T15:46:55.875Z,53.73
2022-10-11T15:49:23.688Z,54.09
2022-10-11T15:51:51.490Z,54.33
2022-10-11T15:54:19.231Z,54.77
2022-10-11T15:56:47.347Z,55.20
2022-10-11T15:59:15.026Z,55.62
2022-10-11T16:01:42.914Z,55.89
2022-10-11T16:04:10.657Z,56.58
2022-10-11T16:06:38.472Z,57.00
2022-10-11T16:09:06.631Z,57.17
2022-10-11T16:11:34.354Z,57.21
2022-10-11T16:14:02.429Z,57.48
2022-10-11T16:16:30.207Z,57.69
2022-10-11T16:18:57.837Z,58.08
2022-10-11T16:21:25.550Z,58.10
2022-10-11T16:23:53.286Z,58.37
2022-10-11T16:26:20.916Z,58.62
2022-10-11T16:28:48.751Z,59.13
2022-10-11T16:31:21.399Z,59.27
2022-10-11T16:33:50.209Z,59.11
2022-10-11T16:36:40.665Z,59.30
2022-10-11T16:39:17.865Z,59.73
2022-10-11T16:41:46.313Z,60.27
2022-10-11T16:44:18.022Z,60.56
2022-10-11T16:46:48.432Z,60.50
2022-10-11T16:49:23.520Z,60.60
2022-10-11T16:51:54.332Z,61.18
2022-10-11T16:54:22.674Z,62.01
2022-10-11T16:56:50.368Z,62.25
2022-10-11T16:59:18.386Z,61.74
2022-10-11T17:01:46.334Z,62.61
2022-10-11T17:04:14.527Z,62.09
2022-10-11T17:06:43.929Z,62.75
2022-10-11T17:09:12.579Z,63.20
2022-10-11T17:11:40.707Z,63.12
2022-10-11T17:14:10.314Z,62.94
2022-10-11T17:16:38.060Z,63.48
2022-10-11T17:19:13.556Z,63.57
2022-10-11T17:21:42.486Z,63.95
2022-10-11T17:24:10.185Z,64.07
2022-10-11T17:26:38.113Z,64.00
2022-10-11T17:29:05.869Z,64.20
2022-10-11T17:31:33.629Z,64.62
2022-10-11T17:34:01.423Z,64.43
2022-10-11T17:36:35.894Z,65.36
2022-10-11T17:39:11.875Z,65.96
2022-10-11T17:41:39.657Z,65.90
2022-10-11T17:44:07.654Z,65.45
2022-10-11T17:46:35.807Z,65.73
2022-10-11T17:49:06.388Z,65.91
2022-10-11T17:51:37.035Z,65.98
2022-10-11T17:54:06.145Z,65.99
2022-10-11T17:56:37.854Z,66.20
2022-10-11T17:59:06.694Z,67.31
2022-10-11T18:01:34.866Z,66.62
2022-10-11T18:04:06.030Z,66.34
2022-10-11T18:06:39.871Z,66.53
2022-10-11T18:09:07.918Z,66.78
2022-10-11T18:11:35.613Z,66.91
2022-10-11T18:14:05.158Z,67.32
2022-10-11T18:16:34.220Z,67.93
2022-10-11T18:19:05.375Z,68.26
2022-10-11T18:21:34.933Z,68.48
2022-10-11T18:24:11.522Z,68.72
2022-10-11T18:26:39.475Z,68.48
2022-10-11T18:29:07.282Z,68.72
2022-10-11T18:31:35.428Z,68.45
2022-10-11T18:34:04.658Z,68.68
2022-10-11T18:36:33.150Z,68.45
2022-10-11T18:39:04.950Z,68.79
2022-10-11T18:41:33.906Z,68.61
2022-10-11T18:44:08.587Z,68.37
2022-10-11T18:46:36.425Z,68.48
2022-10-11T18:49:04.477Z,68.70
2022-10-11T18:51:39.032Z,69.10
2022-10-11T18:54:10.904Z,69.77
2022-10-11T18:56:39.846Z,69.58
2022-10-11T18:59:07.818Z,69.67
2022-10-11T19:01:44.349Z,69.73
2022-10-11T19:04:15.870Z,69.69
2022-10-11T19:06:48.016Z,69.60
2022-10-11T19:09:22.412Z,69.74
2022-10-11T19:11:53.225Z,70.06
2022-10-11T19:14:25.771Z,69.96
2022-10-11T19:16:54.951Z,70.44
2022-10-11T19:19:27.628Z,72.94
2022-10-11T19:21:55.500Z,71.84
2022-10-11T19:24:27.432Z,70.92
2022-10-11T19:26:59.878Z,70.77
2022-10-11T19:29:31.845Z,71.04
2022-10-11T19:32:02.901Z,71.31
2022-10-11T19:34:32.593Z,73.68
2022-10-11T19:37:01.193Z,71.61
2022-10-11T19:39:29.517Z,71.57
2022-10-11T19:41:57.318Z,72.05
2022-10-11T19:44:24.988Z,72.28
2022-10-11T19:46:53.234Z,72.25
2022-10-11T19:49:25.133Z,72.48
2022-10-11T19:51:55.091Z,72.55
2022-10-11T19:54:23.557Z,72.61
2022-10-11T19:56:51.375Z,72.54
2022-10-11T19:59:19.608Z,73.42
2022-10-11T20:01:52.401Z,73.30
2022-10-11T20:04:50.508Z,72.77
2022-10-11T20:07:10.522Z,72.84
2022-10-11T20:09:38.302Z,72.94
2022-10-11T20:12:06.390Z,73.00
2022-10-11T20:14:34.045Z,73.24
2022-10-11T20:17:01.756Z,73.38
2022-10-11T20:19:31.212Z,73.59
2022-10-11T20:22:01.288Z,74.74
2022-10-11T20:24:33.433Z,74.19
2022-10-11T20:27:06.139Z,74.04
2022-10-11T20:29:34.260Z,74.31
2022-10-11T20:32:01.988Z,74.52
2022-10-11T20:34:30.527Z,74.75
2022-10-11T20:36:58.848Z,74.97
2022-10-11T20:39:26.895Z,75.13
2022-10-11T20:41:54.821Z,75.84
2022-10-11T20:44:22.710Z,76.25
2022-10-11T20:46:50.553Z,76.47
2022-10-11T20:49:19.957Z,75.99
2022-10-11T20:51:48.557Z,76.04
2022-10-11T20:54:16.368Z,76.01
2022-10-11T20:56:44.137Z,76.66
2022-10-11T20:59:11.876Z,77.41
2022-10-11T21:01:41.508Z,76.78
2022-10-11T21:04:18.647Z,76.59
2022-10-11T21:06:48.367Z,76.43
2022-10-11T21:09:17.244Z,76.49
2022-10-11T21:11:45.237Z,76.56
2022-10-11T21:14:13.016Z,76.91
2022-10-11T21:16:40.776Z,76.92
2022-10-11T21:19:14.571Z,76.85
2022-10-11T21:21:43.411Z,76.76
2022-10-11T21:24:11.305Z,76.77
2022-10-11T21:26:39.244Z,76.90
2022-10-11T21:29:08.381Z,76.90
2022-10-11T21:31:36.268Z,78.15
2022-10-11T21:34:05.267Z,77.35
2022-10-11T21:36:33.643Z,77.08
2022-10-11T21:39:01.384Z,77.22
2022-10-11T21:41:30.073Z,77.70
2022-10-11T21:43:58.617Z,77.67
2022-10-11T21:49:19.879Z,78.15
2022-10-11T21:51:47.583Z,78.36
2022-10-11T21:54:15.953Z,78.58
2022-10-11T21:56:43.607Z,78.63
2022-10-11T21:59:12.584Z,78.74
2022-10-11T22:01:41.859Z,79.27
2022-10-11T22:04:11.201Z,79.59
2022-10-11T22:06:39.841Z,79.08
2022-10-11T22:09:08.623Z,78.94
2022-10-11T22:11:37.172Z,79.03
2022-10-11T22:14:05.886Z,79.23
2022-10-11T22:16:35.296Z,79.58
2022-10-11T22:19:04.116Z,80.75
2022-10-11T22:21:31.981Z,79.50
2022-10-11T22:24:00.002Z,79.41
2022-10-11T22:26:30.850Z,79.50
2022-10-11T22:29:00.240Z,79.60
2022-10-11T22:31:29.594Z,80.51
2022-10-11T22:34:00.394Z,81.92
2022-10-11T22:36:33.823Z,79.68
2022-10-11T22:39:07.635Z,79.68
2022-10-11T22:41:36.103Z,79.99
2022-10-11T22:44:04.803Z,80.22
2022-10-11T22:46:32.578Z,80.23
2022-10-11T22:49:00.314Z,80.24
2022-10-11T22:51:28.410Z,80.35
2022-10-11T22:53:56.134Z,80.58
2022-10-11T22:56:23.885Z,80.76
2022-10-11T22:58:51.566Z,80.91
2022-10-11T23:01:19.279Z,81.61
2022-10-11T23:03:50.779Z,81.35
2022-10-11T23:06:18.931Z,81.29
2022-10-11T23:08:46.629Z,81.83
2022-10-11T23:11:14.472Z,82.25
2022-10-11T23:13:42.261Z,81.23
2022-10-11T23:16:12.597Z,81.29
2022-10-11T23:18:40.819Z,81.53
2022-10-11T23:21:09.400Z,81.73
2022-10-11T23:23:39.132Z,81.80
2022-10-11T23:26:16.956Z,81.77
2022-10-11T23:28:44.862Z,81.98
2022-10-11T23:31:17.466Z,82.11
2022-10-11T23:33:46.876Z,82.10
2022-10-11T23:36:20.971Z,83.86
2022-10-11T23:38:54.557Z,81.92
2022-10-11T23:41:25.693Z,81.66
2022-10-11T23:43:53.588Z,81.78
2022-10-11T23:46:21.564Z,81.83
2022-10-11T23:48:49.236Z,81.99
2022-10-11T23:51:16.895Z,82.19
2022-10-11T23:53:44.652Z,82.46
2022-10-11T23:56:13.007Z,82.51
2022-10-11T23:58:40.731Z,82.34
